createdAt,value
2022-12-12T00:00:42.389Z,100386.94
2022-12-12T00:03:09.218Z,100385.97
2022-12-12T00:05:35.702Z,100385.13
2022-12-12T00:08:02.265Z,100382.47
2022-12-12T00:10:28.696Z,100386.81
2022-12-12T00:12:55.071Z,100378.00
2022-12-12T00:15:21.624Z,100383.31
2022-12-12T00:17:47.947Z,100385.00
2022-12-12T00:20:14.298Z,100388.53
2022-12-12T00:22:40.870Z,100394.78
2022-12-12T00:25:07.397Z,100389.47
2022-12-12T00:27:34.195Z,100383.31
2022-12-12T00:30:00.659Z,100384.16
2022-12-12T00:32:27.009Z,100387.66
2022-12-12T00:34:53.381Z,100391.28
2022-12-12T00:37:19.873Z,100388.63
2022-12-12T00:39:46.399Z,100393.94
2022-12-12T00:42:12.735Z,100393.94
2022-12-12T00:44:39.753Z,100385.97
2022-12-12T00:47:06.246Z,100389.59
2022-12-12T00:49:32.672Z,100390.44
2022-12-12T00:51:59.008Z,100388.72
2022-12-12T00:54:25.454Z,100390.53
2022-12-12T00:56:51.802Z,100391.38
2022-12-12T00:59:19.621Z,100389.72
2022-12-12T01:01:46.932Z,100390.53
2022-12-12T01:04:13.469Z,100394.19
2022-12-12T01:06:40.142Z,100401.31
2022-12-12T01:09:06.577Z,100399.47
2022-12-12T01:11:32.992Z,100398.75
2022-12-12T01:13:59.346Z,100401.41
2022-12-12T01:16:26.162Z,100404.16
2022-12-12T01:18:52.857Z,100408.63
2022-12-12T01:21:20.186Z,100410.59
2022-12-12T01:23:47.338Z,100408.88
2022-12-12T01:26:20.445Z,100413.34
2022-12-12T01:28:47.818Z,100420.56
2022-12-12T01:31:14.783Z,100427.69
2022-12-12T01:33:45.811Z,100418.88
2022-12-12T01:36:18.117Z,100423.34
2022-12-12T01:38:46.580Z,100424.31
2022-12-12T01:41:13.507Z,100426.13
2022-12-12T01:43:40.490Z,100425.28
2022-12-12T01:46:24.938Z,100425.28
2022-12-12T01:49:11.688Z,100429.59
2022-12-12T01:51:40.059Z,100432.25
2022-12-12T01:54:10.609Z,100431.31
2022-12-12T01:56:39.868Z,100428.66
2022-12-12T01:59:08.797Z,100430.34
2022-12-12T02:01:35.862Z,100425.03
2022-12-12T02:04:02.869Z,100423.34
2022-12-12T02:06:29.848Z,100426.00
2022-12-12T02:09:00.965Z,100433.00
2022-12-12T02:11:32.315Z,100430.44
2022-12-12T02:13:59.282Z,100433.97
2022-12-12T02:16:42.338Z,100431.31
2022-12-12T02:19:30.644Z,100431.31
2022-12-12T02:22:35.501Z,100438.28
2022-12-12T02:25:23.508Z,100426.94
2022-12-12T02:28:05.112Z,100430.59
2022-12-12T02:30:45.128Z,100434.06
2022-12-12T02:33:30.701Z,100440.34
2022-12-12T02:36:30.446Z,100439.47
2022-12-12T02:39:22.713Z,100443.09
2022-12-12T02:42:26.989Z,100431.75
2022-12-12T02:45:35.094Z,100428.38
2022-12-12T02:48:13.750Z,100430.34
2022-12-12T02:50:41.966Z,100435.75
2022-12-12T02:53:08.447Z,100427.94
2022-12-12T02:55:36.611Z,100434.31
2022-12-12T02:58:04.926Z,100437.06
2022-12-12T03:00:40.579Z,100436.31
2022-12-12T03:03:49.021Z,100437.06
2022-12-12T03:07:14.757Z,100434.66
2022-12-12T03:10:02.125Z,100439.31
2022-12-12T03:12:35.026Z,100446.69
2022-12-12T03:15:10.314Z,100438.00
2022-12-12T03:17:44.678Z,100431.97
2022-12-12T03:20:29.389Z,100438.22
2022-12-12T03:23:05.795Z,100436.56
2022-12-12T03:25:47.261Z,100441.84
2022-12-12T03:28:34.769Z,100440.16
2022-12-12T03:31:06.491Z,100436.66
2022-12-12T03:33:56.215Z,100438.47
2022-12-12T03:36:27.218Z,100441.00
2022-12-12T03:38:59.525Z,100441.84
2022-12-12T03:41:36.954Z,100443.66
2022-12-12T03:44:34.489Z,100439.19
2022-12-12T03:47:11.343Z,100437.38
2022-12-12T03:49:47.507Z,100441.84
2022-12-12T03:52:39.864Z,100433.91
2022-12-12T03:55:16.635Z,100442.69
2022-12-12T03:57:57.607Z,100444.50
2022-12-12T04:00:24.115Z,100440.16
2022-12-12T04:03:00.879Z,100446.31
2022-12-12T04:06:05.838Z,100445.44
2022-12-12T04:08:34.254Z,100442.69
2022-12-12T04:11:31.938Z,100448.00
2022-12-12T04:14:41.603Z,100444.38
2022-12-12T04:17:13.080Z,100448.00
2022-12-12T04:20:14.302Z,100461.16
2022-12-12T04:23:10.548Z,100451.38
2022-12-12T04:26:11.861Z,100453.06
2022-12-12T04:28:43.486Z,100455.72
2022-12-12T04:31:13.012Z,100458.34
2022-12-12T04:33:48.573Z,100466.31
2022-12-12T04:36:18.446Z,100467.88
2022-12-12T04:38:47.420Z,100474.75
2022-12-12T04:41:17.063Z,100471.13
2022-12-12T04:43:47.652Z,100472.72
2022-12-12T04:46:18.142Z,100476.22
2022-12-12T04:48:53.715Z,100474.28
2022-12-12T04:51:31.724Z,100468.63
2022-12-12T04:54:13.801Z,100470.34
2022-12-12T04:56:45.155Z,100480.09
2022-12-12T04:59:11.860Z,100479.25
2022-12-12T05:01:53.198Z,100481.91
2022-12-12T05:04:55.714Z,100483.59
2022-12-12T05:07:40.066Z,100480.81
2022-12-12T05:10:12.594Z,100481.66
2022-12-12T05:12:59.869Z,100481.78
2022-12-12T05:15:28.926Z,100486.25
2022-12-12T05:18:07.535Z,100477.31
2022-12-12T05:20:34.439Z,100480.94
2022-12-12T05:23:00.750Z,100481.91
2022-12-12T05:25:27.140Z,100488.19
2022-12-12T05:27:53.535Z,100479.38
2022-12-12T05:30:20.040Z,100491.75
2022-12-12T05:32:46.385Z,100476.84
2022-12-12T05:35:12.936Z,100479.47
2022-12-12T05:37:39.578Z,100485.63
2022-12-12T05:40:08.844Z,100483.09
2022-12-12T05:42:35.271Z,100484.06
2022-12-12T05:45:01.947Z,100487.53
2022-12-12T05:47:28.359Z,100478.75
2022-12-12T05:49:54.679Z,100481.41
2022-12-12T05:52:21.057Z,100487.69
2022-12-12T05:54:47.517Z,100487.78
2022-12-12T05:57:13.904Z,100489.59
2022-12-12T05:59:40.304Z,100490.56
2022-12-12T06:02:06.650Z,100488.84
2022-12-12T06:04:33.100Z,100489.69
2022-12-12T06:06:59.597Z,100489.69
2022-12-12T06:09:25.937Z,100491.50
2022-12-12T06:11:52.276Z,100491.50
2022-12-12T06:14:18.622Z,100490.66
2022-12-12T06:16:44.981Z,100496.81
2022-12-12T06:19:11.353Z,100493.31
2022-12-12T06:21:38.475Z,100493.31
2022-12-12T06:24:06.326Z,100499.59
2022-12-12T06:26:32.781Z,100502.09
2022-12-12T06:28:59.379Z,100503.09
2022-12-12T06:31:25.888Z,100504.75
2022-12-12T06:33:52.308Z,100503.91
2022-12-12T06:36:24.151Z,100504.75
2022-12-12T06:38:52.375Z,100511.78
2022-12-12T06:41:19.840Z,100504.75
2022-12-12T06:46:19.037Z,100502.84
2022-12-12T06:48:46.262Z,100509.97
2022-12-12T06:51:29.268Z,100496.81
2022-12-12T06:53:56.158Z,100513.69
2022-12-12T06:56:24.305Z,100505.84
2022-12-12T06:58:51.268Z,100508.63
2022-12-12T07:01:21.921Z,100512.22
2022-12-12T07:03:49.732Z,100502.69
2022-12-12T07:06:17.595Z,100499.31
2022-12-12T07:08:43.900Z,100502.06
2022-12-12T07:11:20.306Z,100510.13
2022-12-12T07:13:46.767Z,100509.53
2022-12-12T07:16:13.413Z,100504.47
2022-12-12T07:18:39.909Z,100510.00
2022-12-12T07:21:08.242Z,100511.91
2022-12-12T07:23:35.179Z,100505.88
2022-12-12T07:26:12.204Z,100509.50
2022-12-12T07:28:38.811Z,100508.75
2022-12-12T07:31:07.635Z,100511.50
2022-12-12T07:33:43.249Z,100512.47
2022-12-12T07:36:12.143Z,100518.75
2022-12-12T07:38:38.636Z,100517.03
2022-12-12T07:41:11.461Z,100519.81
2022-12-12T07:43:43.389Z,100516.44
2022-12-12T07:46:14.389Z,100524.47
2022-12-12T07:48:40.871Z,100514.84
2022-12-12T07:51:07.203Z,100533.38
2022-12-12T07:53:33.547Z,100532.56
2022-12-12T07:55:59.900Z,100529.03
2022-12-12T07:58:26.273Z,100535.19
2022-12-12T08:00:52.740Z,100533.38
2022-12-12T08:03:19.053Z,100530.75
2022-12-12T08:05:45.436Z,100546.50
2022-12-12T08:08:11.800Z,100555.19
2022-12-12T08:10:39.583Z,100542.69
2022-12-12T08:13:06.608Z,100557.53
2022-12-12T08:15:33.099Z,100549.47
2022-12-12T08:17:59.443Z,100539.47
2022-12-12T08:20:25.831Z,100544.69
2022-12-12T08:22:52.220Z,100545.38
2022-12-12T08:25:18.561Z,100552.28
2022-12-12T08:27:44.864Z,100552.91
2022-12-12T08:30:11.857Z,100547.47
2022-12-12T08:32:38.161Z,100551.69
2022-12-12T08:35:05.678Z,100555.84
2022-12-12T08:37:32.016Z,100561.88
2022-12-12T08:39:58.328Z,100561.63
2022-12-12T08:42:24.655Z,100569.38
2022-12-12T08:44:51.107Z,100564.78
2022-12-12T08:47:17.640Z,100569.13
2022-12-12T08:49:44.040Z,100567.94
2022-12-12T08:52:10.478Z,100575.69
2022-12-12T08:54:38.062Z,100572.78
2022-12-12T08:57:04.543Z,100577.03
2022-12-12T08:59:30.878Z,100578.47
2022-12-12T09:01:57.390Z,100579.09
2022-12-12T09:04:23.793Z,100578.03
2022-12-12T09:06:50.143Z,100586.47
2022-12-12T09:09:16.481Z,100586.09
2022-12-12T09:11:43.775Z,100580.59
2022-12-12T09:14:10.956Z,100586.41
2022-12-12T09:16:37.326Z,100587.97
2022-12-12T09:19:03.706Z,100596.53
2022-12-12T09:21:30.035Z,100593.66
2022-12-12T09:23:56.349Z,100597.97
2022-12-12T09:26:22.686Z,100599.56
2022-12-12T09:28:49.262Z,100604.66
2022-12-12T09:31:15.743Z,100604.53
2022-12-12T09:33:43.148Z,100604.28
2022-12-12T09:36:11.957Z,100606.84
2022-12-12T09:38:38.451Z,100603.09
2022-12-12T09:41:15.327Z,100595.75
2022-12-12T09:43:57.382Z,100599.22
2022-12-12T09:46:29.473Z,100594.66
2022-12-12T09:49:03.248Z,100602.38
2022-12-12T09:51:29.618Z,100600.59
2022-12-12T09:53:56.127Z,100604.94
2022-12-12T09:56:56.830Z,100599.50
2022-12-12T09:59:40.050Z,100594.06
2022-12-12T10:02:09.195Z,100602.88
2022-12-12T10:04:47.804Z,100600.22
2022-12-12T10:07:52.650Z,100600.94
2022-12-12T10:10:36.461Z,100597.31
2022-12-12T10:13:06.097Z,100594.56
2022-12-12T10:15:38.671Z,100589.16
2022-12-12T10:18:09.936Z,100594.31
2022-12-12T10:20:45.394Z,100596.88
2022-12-12T10:23:19.742Z,100593.00
2022-12-12T10:25:55.902Z,100594.69
2022-12-12T10:28:25.380Z,100590.97
2022-12-12T10:31:23.022Z,100596.03
2022-12-12T10:34:17.674Z,100593.97
2022-12-12T10:37:17.070Z,100585.06
2022-12-12T10:40:13.884Z,100587.47
2022-12-12T10:42:55.238Z,100588.19
2022-12-12T10:45:38.959Z,100580.09
2022-12-12T10:48:05.538Z,100580.94
2022-12-12T10:50:38.589Z,100584.31
2022-12-12T10:53:09.699Z,100581.66
2022-12-12T10:55:49.832Z,100582.50
2022-12-12T10:58:19.728Z,100587.69
2022-12-12T11:00:48.945Z,100588.44
2022-12-12T11:03:29.298Z,100578.66
2022-12-12T11:05:56.970Z,100580.31
2022-12-12T11:08:31.101Z,100580.22
2022-12-12T11:11:24.091Z,100581.06
2022-12-12T11:13:50.380Z,100575.63
2022-12-12T11:16:24.842Z,100583.59
2022-12-12T11:19:02.369Z,100584.31
2022-12-12T11:21:32.737Z,100582.63
2022-12-12T11:24:00.252Z,100585.28
2022-12-12T11:26:28.401Z,100576.56
2022-12-12T11:29:01.284Z,100586.25
2022-12-12T11:31:31.236Z,100578.28
2022-12-12T11:34:01.621Z,100579.97
2022-12-12T11:36:32.671Z,100576.31
2022-12-12T11:39:01.535Z,100581.53
2022-12-12T11:41:27.953Z,100575.25
2022-12-12T11:43:59.803Z,100577.69
2022-12-12T11:46:29.275Z,100570.53
2022-12-12T11:48:59.387Z,100569.56
2022-12-12T11:51:43.820Z,100571.28
2022-12-12T11:54:22.743Z,100557.00
2022-12-12T11:57:06.138Z,100564.97
2022-12-12T11:59:32.371Z,100561.34
2022-12-12T12:02:17.010Z,100563.91
2022-12-12T12:04:58.683Z,100557.34
2022-12-12T12:07:46.402Z,100552.75
2022-12-12T12:10:50.376Z,100547.19
2022-12-12T12:13:31.759Z,100542.50
2022-12-12T12:16:46.607Z,100547.56
2022-12-12T12:19:19.049Z,100546.47
2022-12-12T12:22:10.910Z,100548.88
2022-12-12T12:24:46.370Z,100544.28
2022-12-12T12:27:49.258Z,100543.28
2022-12-12T12:30:20.758Z,100543.19
2022-12-12T12:33:20.233Z,100546.56
2022-12-12T12:36:20.942Z,100527.81
2022-12-12T12:39:19.301Z,100533.84
2022-12-12T12:41:59.107Z,100526.72
2022-12-12T12:44:44.146Z,100529.28
2022-12-12T12:47:35.837Z,100524.78
2022-12-12T12:50:14.239Z,100525.63
2022-12-12T12:52:53.588Z,100530.84
2022-12-12T12:55:24.566Z,100528.88
2022-12-12T12:57:51.855Z,100527.91
2022-12-12T13:00:20.727Z,100536.72
2022-12-12T13:03:11.228Z,100534.06
2022-12-12T13:05:45.943Z,100540.22
2022-12-12T13:08:12.919Z,100534.06
2022-12-12T13:10:45.612Z,100531.53
2022-12-12T13:13:26.948Z,100533.22
2022-12-12T13:16:13.999Z,100529.75
2022-12-12T13:18:46.192Z,100532.41
2022-12-12T13:21:33.117Z,100530.69
2022-12-12T13:24:05.595Z,100530.69
2022-12-12T13:26:41.807Z,100528.03
2022-12-12T13:29:48.497Z,100522.84
2022-12-12T13:32:22.726Z,100528.03
2022-12-12T13:34:53.965Z,100522.03
2022-12-12T13:37:23.699Z,100520.19
2022-12-12T13:40:01.345Z,100526.47
2022-12-12T13:42:52.470Z,100521.16
2022-12-12T13:45:37.934Z,100525.50
2022-12-12T13:48:10.989Z,100524.78
2022-12-12T13:50:37.514Z,100527.56
2022-12-12T13:53:06.590Z,100533.03
2022-12-12T13:55:35.990Z,100529.63
2022-12-12T13:58:02.722Z,100528.91
2022-12-12T14:00:30.900Z,100528.91
2022-12-12T14:03:09.489Z,100537.97
2022-12-12T14:05:44.636Z,100538.13
2022-12-12T14:08:10.915Z,100537.41
2022-12-12T14:10:43.262Z,100535.56
2022-12-12T14:13:18.632Z,100541.88
2022-12-12T14:15:47.039Z,100540.31
2022-12-12T14:18:27.157Z,100542.97
2022-12-12T14:21:02.206Z,100544.78
2022-12-12T14:23:51.100Z,100544.91
2022-12-12T14:26:23.169Z,100540.56
2022-12-12T14:29:18.172Z,100551.41
2022-12-12T14:32:01.395Z,100555.06
2022-12-12T14:34:53.026Z,100554.47
2022-12-12T14:37:38.281Z,100556.50
2022-12-12T14:40:19.656Z,100549.53
2022-12-12T14:43:20.567Z,100552.28
2022-12-12T14:45:40.191Z,100559.41
2022-12-12T14:48:18.611Z,100560.50
2022-12-12T14:50:49.754Z,100566.91
2022-12-12T14:53:21.731Z,100560.16
2022-12-12T14:55:53.327Z,100563.91
2022-12-12T14:58:22.744Z,100572.97
2022-12-12T15:00:52.821Z,100562.56
2022-12-12T15:03:25.736Z,100562.72
2022-12-12T15:06:24.043Z,100568.13
2022-12-12T15:08:52.209Z,100568.25
2022-12-12T15:11:25.962Z,100570.09
2022-12-12T15:13:54.702Z,100572.97
2022-12-12T15:16:36.035Z,100567.66
2022-12-12T15:19:03.243Z,100570.53
2022-12-12T15:21:33.011Z,100576.84
2022-12-12T15:23:59.996Z,100575.28
2022-12-12T15:26:32.955Z,100572.72
2022-12-12T15:28:59.808Z,100569.34
2022-12-12T15:31:26.247Z,100563.19
2022-12-12T15:33:52.704Z,100561.38
2022-12-12T15:36:28.163Z,100564.03
2022-12-12T15:39:14.251Z,100558.00
2022-12-12T15:41:41.871Z,100552.69
2022-12-12T15:44:17.524Z,100560.66
2022-12-12T15:46:44.183Z,100570.19
2022-12-12T15:49:37.605Z,100571.03
2022-12-12T15:52:12.897Z,100565.25
2022-12-12T15:54:45.974Z,100568.75
2022-12-12T15:57:25.255Z,100568.88
2022-12-12T15:59:55.991Z,100577.78
2022-12-12T16:02:30.945Z,100581.41
2022-12-12T16:05:03.025Z,100577.94
2022-12-12T16:07:30.738Z,100583.34
2022-12-12T16:10:02.770Z,100578.13
2022-12-12T16:12:54.605Z,100582.63
2022-12-12T16:15:29.342Z,100585.25
2022-12-12T16:18:01.224Z,100580.94
2022-12-12T16:20:30.635Z,100582.84
2022-12-12T16:23:17.955Z,100572.25
2022-12-12T16:25:44.303Z,100570.56
2022-12-12T16:28:10.552Z,100574.16
2022-12-12T16:30:38.444Z,100565.34
2022-12-12T16:33:23.780Z,100580.44
2022-12-12T16:35:50.669Z,100589.34
2022-12-12T16:38:18.127Z,100589.50
2022-12-12T16:40:47.367Z,100581.63
2022-12-12T16:43:16.933Z,100591.41
2022-12-12T16:45:43.935Z,100589.72
2022-12-12T16:48:15.449Z,100583.59
2022-12-12T16:50:42.202Z,100594.19
2022-12-12T16:53:08.932Z,100582.72
2022-12-12T16:55:37.498Z,100585.38
2022-12-12T16:58:03.892Z,100581.88
2022-12-12T17:00:30.240Z,100577.53
2022-12-12T17:02:56.785Z,100580.31
2022-12-12T17:05:26.088Z,100583.19
2022-12-12T17:07:52.979Z,100579.94
2022-12-12T17:10:21.428Z,100580.28
2022-12-12T17:12:47.808Z,100585.22
2022-12-12T17:15:19.699Z,100581.34
2022-12-12T17:17:46.782Z,100589.06
2022-12-12T17:20:14.127Z,100587.81
2022-12-12T17:22:41.373Z,100595.38
2022-12-12T17:25:08.418Z,100592.47
2022-12-12T17:27:35.930Z,100583.25
2022-12-12T17:30:02.553Z,100579.41
2022-12-12T17:32:30.169Z,100580.81
2022-12-12T17:34:56.878Z,100587.41
2022-12-12T17:37:24.442Z,100578.22
2022-12-12T17:39:50.921Z,100586.63
2022-12-12T17:42:18.069Z,100580.81
2022-12-12T17:44:44.715Z,100580.41
2022-12-12T17:47:11.237Z,100587.00
2022-12-12T17:49:37.664Z,100577.81
2022-12-12T17:52:04.327Z,100580.88
2022-12-12T17:54:30.627Z,100577.72
2022-12-12T17:56:56.956Z,100588.03
2022-12-12T17:59:23.299Z,100580.53
2022-12-12T18:01:53.862Z,100581.91
2022-12-12T18:04:27.411Z,100591.97
2022-12-12T18:06:54.945Z,100593.34
2022-12-12T18:09:21.336Z,100584.03
2022-12-12T18:11:47.785Z,100587.13
2022-12-12T18:14:15.876Z,100593.78
2022-12-12T18:16:43.919Z,100593.28
2022-12-12T18:19:10.906Z,100587.56
2022-12-12T18:24:25.341Z,100595.38
2022-12-12T18:26:53.584Z,100594.13
2022-12-12T18:29:20.261Z,100595.28
2022-12-12T18:31:46.610Z,100593.91
2022-12-12T18:34:13.898Z,100600.44
2022-12-12T18:36:40.333Z,100596.22
2022-12-12T18:39:06.953Z,100593.03
2022-12-12T18:41:36.587Z,100602.97
2022-12-12T18:44:06.071Z,100601.47
2022-12-12T18:46:40.329Z,100607.06
2022-12-12T18:49:09.601Z,100604.75
2022-12-12T18:51:36.438Z,100603.25
2022-12-12T18:54:07.035Z,100606.09
2022-12-12T18:56:37.805Z,100606.31
2022-12-12T18:59:04.251Z,100610.19
2022-12-12T19:01:34.371Z,100612.09
2022-12-12T19:04:11.360Z,100622.94
2022-12-12T19:06:40.041Z,100614.38
2022-12-12T19:09:17.545Z,100613.72
2022-12-12T19:11:44.594Z,100611.19
2022-12-12T19:14:12.790Z,100602.59
2022-12-12T19:16:39.251Z,100602.91
2022-12-12T19:19:06.326Z,100598.78
2022-12-12T19:21:34.849Z,100593.69
2022-12-12T19:24:02.845Z,100596.63
2022-12-12T19:26:30.205Z,100592.38
2022-12-12T19:28:58.850Z,100593.41
2022-12-12T19:31:25.850Z,100596.25
2022-12-12T19:33:53.076Z,100586.75
2022-12-12T19:36:24.816Z,100583.47
2022-12-12T19:38:53.201Z,100589.66
2022-12-12T19:41:21.720Z,100595.16
2022-12-12T19:43:49.847Z,100590.91
2022-12-12T19:46:19.180Z,100586.69
2022-12-12T19:48:45.687Z,100584.25
2022-12-12T19:51:17.677Z,100586.97
2022-12-12T19:53:47.016Z,100585.28
2022-12-12T19:56:15.661Z,100591.59
2022-12-12T19:58:42.888Z,100581.25
2022-12-12T20:01:15.189Z,100588.41
2022-12-12T20:03:42.118Z,100584.16
2022-12-12T20:06:10.721Z,100593.13
2022-12-12T20:08:38.080Z,100582.75
2022-12-12T20:11:05.804Z,100582.84
2022-12-12T20:13:32.645Z,100576.91
2022-12-12T20:16:09.838Z,100592.88
2022-12-12T20:18:36.555Z,100580.72
2022-12-12T20:21:03.532Z,100587.88
2022-12-12T20:23:31.848Z,100589.66
2022-12-12T20:25:58.227Z,100590.72
2022-12-12T20:28:24.678Z,100589.00
2022-12-12T20:30:53.528Z,100579.47
2022-12-12T20:33:20.051Z,100586.53
2022-12-12T20:35:46.394Z,100579.59
2022-12-12T20:38:12.739Z,100590.34
2022-12-12T20:40:40.267Z,100586.94
2022-12-12T20:43:06.586Z,100585.34
2022-12-12T20:45:36.340Z,100593.25
2022-12-12T20:48:07.372Z,100596.81
2022-12-12T20:50:34.197Z,100596.16
2022-12-12T20:53:00.585Z,100589.19
2022-12-12T20:55:27.047Z,100590.22
2022-12-12T20:57:54.060Z,100587.69
2022-12-12T21:00:20.610Z,100592.13
2022-12-12T21:02:46.995Z,100593.16
2022-12-12T21:05:13.683Z,100584.47
2022-12-12T21:07:40.174Z,100584.66
2022-12-12T21:10:06.782Z,100583.06
2022-12-12T21:12:33.096Z,100582.31
2022-12-12T21:15:02.699Z,100590.31
2022-12-12T21:17:30.161Z,100585.13
2022-12-12T21:19:59.454Z,100587.13
2022-12-12T21:22:28.772Z,100589.94
2022-12-12T21:24:55.098Z,100592.66
2022-12-12T21:27:21.408Z,100593.69
2022-12-12T21:29:47.936Z,100590.28
2022-12-12T21:32:14.308Z,100594.78
2022-12-12T21:34:41.510Z,100593.13
2022-12-12T21:37:07.888Z,100595.81
2022-12-12T21:39:34.496Z,100594.22
2022-12-12T21:42:00.835Z,100590.84
2022-12-12T21:44:27.298Z,100602.44
2022-12-12T21:46:53.779Z,100597.22
2022-12-12T21:49:25.821Z,100603.47
2022-12-12T21:51:56.888Z,100600.06
2022-12-12T21:54:23.832Z,100599.28
2022-12-12T21:56:50.219Z,100602.88
2022-12-12T21:59:16.571Z,100603.78
2022-12-12T22:01:42.988Z,100600.44
2022-12-12T22:04:11.771Z,100605.78
2022-12-12T22:06:38.776Z,100610.28
2022-12-12T22:09:08.461Z,100611.31
2022-12-12T22:11:40.852Z,100609.69
2022-12-12T22:14:09.845Z,100606.34
2022-12-12T22:16:37.933Z,100605.56
2022-12-12T22:19:09.997Z,100612.78
2022-12-12T22:21:36.598Z,100603.38
2022-12-12T22:24:03.498Z,100605.25
2022-12-12T22:26:32.822Z,100612.38
2022-12-12T22:29:01.824Z,100606.38
2022-12-12T22:31:30.792Z,100606.53
2022-12-12T22:34:00.202Z,100604.00
2022-12-12T22:36:29.467Z,100613.75
2022-12-12T22:38:57.955Z,100607.72
2022-12-12T22:41:24.920Z,100604.31
2022-12-12T22:43:56.221Z,100607.91
2022-12-12T22:46:25.030Z,100603.66
2022-12-12T22:48:52.910Z,100602.91
2022-12-12T22:51:21.841Z,100602.06
2022-12-12T22:53:48.315Z,100613.59
2022-12-12T22:56:15.575Z,100612.00
2022-12-12T22:58:42.590Z,100619.06
2022-12-12T23:01:10.390Z,100606.06
2022-12-12T23:03:37.183Z,100612.25
2022-12-12T23:06:05.645Z,100607.09
2022-12-12T23:08:32.312Z,100609.78
2022-12-12T23:11:09.606Z,100608.09
2022-12-12T23:13:36.036Z,100603.03
2022-12-12T23:16:08.289Z,100597.81
2022-12-12T23:18:37.256Z,100604.13
2022-12-12T23:21:05.264Z,100603.34
2022-12-12T23:23:31.828Z,100598.25
2022-12-12T23:26:03.253Z,100597.50
2022-12-12T23:28:30.053Z,100600.28
2022-12-12T23:30:57.266Z,100592.50
2022-12-12T23:33:24.197Z,100598.78
2022-12-12T23:35:50.944Z,100592.75
2022-12-12T23:38:17.368Z,100597.25
2022-12-12T23:40:43.962Z,100596.47
2022-12-12T23:43:10.371Z,100590.47
2022-12-12T23:45:37.549Z,100590.63
2022-12-12T23:48:05.434Z,100586.38
2022-12-12T23:50:32.430Z,100594.38
2022-12-12T23:52:59.708Z,100593.59
2022-12-12T23:55:26.052Z,100594.63
2022-12-12T23:57:52.390Z,100589.44
